Meteo Giornale » Osservazioni meteo Italia » Milano-Linate

ore: 19:50 - Osservazioni Meteo Milano-Linate
Lat. 45° 26' N Lon. 9° 17' E Alt. 107 metri s.l.m.

poco_nuvoloso Europe/Rome

22 °C

Poco Nuvoloso

Temp. 24 Ore

19 °C

27 °C

Nord

5.5 Km/h

Dew point 17 °C

Umidità 73 %

Visibilità  10 Km

Il sole sorge alle ore 06:05

Il sole tramonta alle ore 20:52

Data e Ora Cielo e Fenomeni T °C DP °C Um. % Pres. hPa Vis. km Vento km/h
Oggi h: 19:50 poco_nuvoloso Poco Nuvoloso 22 17 73 1007 10 N 5.5
Oggi h: 19:20 poco_nuvoloso Poco Nuvoloso 23 16 64 1007 10 N 5.5
Oggi h: 18:50 nuvoloso Nuvoloso 22 18 78 1007 10 N 7.4
Oggi h: 18:20 nuvoloso Nuvoloso 19 18 93 1006 10 N 5.5
Oggi h: 17:50 molto_nuvoloso Molto Nuvoloso 19 17 88 1006 10 N/NO 9.3
Oggi h: 17:20 coperto_temporali Temporale 19 17 88 1006 10 S/SO 11.1
Oggi h: 16:50 nuvoloso_temporali Temporale con Pioggia Debole 19 15 77 1006 10 NE 9.3
Oggi h: 15:50 molto_nuvoloso Molto Nuvoloso 26 19 65 1004 10 SO 9.3
Oggi h: 15:20 molto_nuvoloso Molto Nuvoloso 26 19 65 1004 10 SO 11.1
Oggi h: 14:50 nuvoloso Nuvoloso 27 19 61 1004 10 O/SO 11.1
Oggi h: 14:20 nuvoloso Nuvoloso 27 19 61 1004 10 SO 11.1
Oggi h: 13:50 poco_nuvoloso Poco Nuvoloso 27 19 61 1004 10 O/SO 11.1
Oggi h: 13:20 nuvoloso Nuvoloso 27 18 57 1004 10 SO 11.1
Oggi h: 12:50 nuvoloso Nuvoloso 26 19 65 1004 10 SO 9.3
Oggi h: 12:20 nuvoloso Nuvoloso 27 19 61 1004 10 N 5.5
Oggi h: 11:50 nuvoloso Nuvoloso 26 18 61 1005 10 N 3.7
Oggi h: 11:20 nuvoloso Nuvoloso 25 18 65 1005 10 N 5.5
Oggi h: 10:50 nuvoloso Nuvoloso 25 17 61 1005 10 N 5.5
Oggi h: 10:20 nuvoloso Nuvoloso 24 18 69 1005 10 N 3.7
Oggi h: 09:50 nuvoloso Nuvoloso 23 18 73 1004 10 N 3.7
Oggi h: 09:20 nuvoloso Nuvoloso 23 18 73 1004 10 N 7.4
Oggi h: 08:50 nuvoloso Nuvoloso 22 18 78 1004 10 NE 9.3
Oggi h: 08:20 nuvoloso Nuvoloso 21 18 82 1004 10 N 11.1
Oggi h: 07:50 nuvoloso Nuvoloso 21 18 82 1004 10 N 11.1
Oggi h: 07:20 molto_nuvoloso Molto Nuvoloso 21 18 82 1004 8 N/NO 9.3
Oggi h: 06:50 nuvoloso Nuvoloso 20 19 93 1004 10 N 1.8
Oggi h: 06:20 nuvoloso_temporali Temporale nelle Vicinanze 20 19 93 1004 10 N 5.5
Oggi h: 05:50 nuvoloso_temporali Temporale nelle Vicinanze 19 19 100 1004 10 N 1.8
Oggi h: 05:20 molto_nuvoloso Molto Nuvoloso 20 18 88 1004 10 N 1.8
Oggi h: 04:50 nuvoloso Nuvoloso 20 18 88 1005 10 N 5.5
Oggi h: 04:20 poco_nuvoloso Poco Nuvoloso 20 18 88 1005 10 N 3.7
Oggi h: 03:50 coperto_pioggia Pioggia Debole 21 18 82 1004 10 N 5.5
Oggi h: 03:20 molto_nuvoloso Molto Nuvoloso 21 17 77 1005 10 N 5.5
Oggi h: 02:50 molto_nuvoloso Molto Nuvoloso 21 17 77 1005 10 N 7.4
Oggi h: 02:20 molto_nuvoloso Molto Nuvoloso 21 17 77 1006 10 N 3.7
Oggi h: 01:50 nuvoloso Nuvoloso 21 17 77 1006 10 N 7.4
Oggi h: 01:20 molto_nuvoloso Molto Nuvoloso 22 17 73 1007 10 NO 13
Oggi h: 00:50 molto_nuvoloso Molto Nuvoloso 22 17 73 1006 10 N 5.5
Oggi h: 00:20 sereno Sereno 22 17 73 1006 10 N 9.3
Ieri h: 23:50 poco_nuvoloso Poco Nuvoloso 22 17 73 1005 10 N 16.7
Ieri h: 23:20 nuvoloso Nuvoloso 22 18 78 1006 10 N/NO 13
Ieri h: 22:20 molto_nuvoloso Molto Nuvoloso 23 18 73 1006 10 N 13
Ieri h: 21:50 nuvoloso_temporali Temporale nelle Vicinanze 23 19 78 1006 10 N 16.7
Ieri h: 21:20 molto_nuvoloso Molto Nuvoloso 26 18 61 1006 10 O/NO 11.1
Ieri h: 20:50 molto_nuvoloso Molto Nuvoloso 26 18 61 1005 10 O/SO 7.4